createdAt,value
2018-08-24T00:04:43.204Z,21.2
2018-08-24T00:14:42.443Z,21.1
2018-08-24T00:24:41.682Z,21.1
2018-08-24T00:34:40.925Z,21
2018-08-24T00:44:40.162Z,21
2018-08-24T00:54:39.413Z,20.9
2018-08-24T01:04:38.645Z,20.9
2018-08-24T01:14:37.884Z,20.8
2018-08-24T01:24:37.125Z,20.8
2018-08-24T01:34:36.366Z,20.8
2018-08-24T01:44:35.605Z,20.9
2018-08-24T01:54:34.849Z,21
2018-08-24T02:04:34.087Z,21.1
2018-08-24T02:14:33.339Z,21.1
2018-08-24T02:24:32.575Z,21.2
2018-08-24T02:34:31.807Z,21.2
2018-08-24T02:44:31.048Z,21.2
2018-08-24T02:54:30.306Z,21
2018-08-24T03:04:29.532Z,20.6
2018-08-24T03:14:28.770Z,20.7
2018-08-24T03:24:28.013Z,20.4
2018-08-24T03:34:27.301Z,20.3
2018-08-24T03:44:26.496Z,20.1
2018-08-24T03:54:25.733Z,20.1
2018-08-24T04:04:24.981Z,20
2018-08-24T04:14:24.219Z,20.1
2018-08-24T04:24:23.458Z,20.5
2018-08-24T04:34:22.699Z,20.6
2018-08-24T04:44:21.943Z,21.4
2018-08-24T04:54:21.187Z,22.3
2018-08-24T05:04:20.427Z,22.6
2018-08-24T05:14:19.677Z,22.8
2018-08-24T05:24:18.925Z,23.5
2018-08-24T05:34:18.155Z,23.9
2018-08-24T05:44:17.398Z,25.1
2018-08-24T05:54:16.641Z,25.9
2018-08-24T06:04:15.884Z,26.4
2018-08-24T06:14:15.125Z,26.9
2018-08-24T06:24:14.367Z,27.3
2018-08-24T06:34:13.607Z,27.1
2018-08-24T06:44:12.852Z,27.6
2018-08-24T06:54:12.090Z,28
2018-08-24T07:04:11.342Z,28.6
2018-08-24T07:14:10.576Z,29.4
2018-08-24T07:24:09.823Z,29.9
2018-08-24T07:34:09.058Z,30.4
2018-08-24T07:44:08.300Z,30.8
2018-08-24T07:54:07.541Z,30.9
2018-08-24T08:04:06.782Z,31.7
2018-08-24T08:14:06.078Z,31.3
2018-08-24T08:24:05.266Z,31.4
2018-08-24T08:34:04.506Z,30.9
2018-08-24T08:44:03.749Z,30.7
2018-08-24T08:54:02.989Z,30.5
2018-08-24T09:04:02.231Z,30.1
2018-08-24T09:14:01.481Z,30
2018-08-24T09:24:00.714Z,29.9
2018-08-24T09:33:59.956Z,29.8
2018-08-24T09:43:59.195Z,30.1
2018-08-24T09:53:58.436Z,30
2018-08-24T10:03:57.677Z,30.1
2018-08-24T10:13:56.924Z,29.9
2018-08-24T10:23:56.161Z,29.6
2018-08-24T10:33:55.476Z,29.1
2018-08-24T10:43:54.642Z,28.6
2018-08-24T10:53:53.885Z,29.1
2018-08-24T11:03:53.125Z,29.4
2018-08-24T11:13:52.367Z,29.8
2018-08-24T11:23:51.610Z,30
2018-08-24T11:33:50.895Z,29.8
2018-08-24T11:43:50.097Z,29.6
2018-08-24T11:53:49.335Z,29.4
2018-08-24T12:03:48.572Z,29.3
2018-08-24T12:13:47.880Z,29.3
2018-08-24T12:23:47.070Z,28.9
2018-08-24T12:33:46.300Z,28.9
2018-08-24T12:43:45.540Z,28.6
2018-08-24T12:53:44.781Z,28.5
2018-08-24T13:03:44.026Z,28.4
2018-08-24T13:13:43.266Z,28.3
2018-08-24T13:23:42.509Z,28.1
2018-08-24T13:33:41.752Z,28
2018-08-24T13:43:40.988Z,28
2018-08-24T13:53:40.371Z,27.9
2018-08-24T14:03:39.474Z,27.8
2018-08-24T14:13:38.800Z,27.9
2018-08-24T14:23:38.010Z,27.7
2018-08-24T14:33:37.300Z,27.8
2018-08-24T14:43:36.437Z,27.6
2018-08-24T14:53:35.680Z,27.6
2018-08-24T15:03:34.924Z,27.4
2018-08-24T15:13:34.174Z,27.4
2018-08-24T15:23:33.410Z,27.4
2018-08-24T15:33:32.661Z,27.3
2018-08-24T15:43:31.902Z,27.2
2018-08-24T15:53:31.142Z,27.1
2018-08-24T16:03:30.388Z,27
2018-08-24T16:13:29.634Z,26.8
2018-08-24T16:23:28.882Z,26.7
2018-08-24T16:33:28.123Z,26.4
2018-08-24T16:43:27.367Z,26.1
2018-08-24T16:53:26.613Z,25.8
2018-08-24T17:03:25.888Z,25.6
2018-08-24T17:13:25.102Z,25.5
2018-08-24T17:23:24.350Z,25.1
2018-08-24T17:33:23.596Z,25.1
2018-08-24T17:43:22.843Z,24.9
2018-08-24T17:53:22.086Z,24.8
2018-08-24T18:03:21.329Z,24.8
2018-08-24T18:13:20.585Z,24.7
2018-08-24T18:23:19.856Z,24.6
2018-08-24T18:33:19.062Z,24.5
2018-08-24T18:43:18.308Z,24.4
2018-08-24T18:53:17.551Z,24.4
2018-08-24T19:03:16.853Z,24.4
2018-08-24T19:13:16.043Z,24.3
2018-08-24T19:23:15.287Z,23.9
2018-08-24T19:33:14.545Z,23.8
2018-08-24T19:43:13.788Z,23.6
2018-08-24T19:53:13.033Z,23.4
2018-08-24T20:03:12.279Z,23.3
2018-08-24T20:13:11.564Z,23.2
2018-08-24T20:23:10.767Z,23.3
2018-08-24T20:33:10.064Z,23.1
2018-08-24T20:43:09.255Z,22.6
2018-08-24T20:53:08.500Z,22.4
2018-08-24T21:03:07.744Z,22.3
2018-08-24T21:13:06.985Z,22.2
2018-08-24T21:23:06.231Z,22.1
2018-08-24T21:33:05.470Z,22
2018-08-24T21:43:04.720Z,22
2018-08-24T21:53:03.960Z,21.9
2018-08-24T22:03:03.200Z,21.8
2018-08-24T22:13:02.440Z,21.6
2018-08-24T22:23:01.682Z,21.6
2018-08-24T22:33:00.925Z,21.6
2018-08-24T22:43:00.168Z,21.6
2018-08-24T22:52:59.406Z,21.6
2018-08-24T23:02:58.648Z,21.5
2018-08-24T23:12:57.890Z,21.4
2018-08-24T23:22:57.133Z,21.4
2018-08-24T23:32:56.378Z,21.3
2018-08-24T23:42:55.615Z,21.4
2018-08-24T23:52:54.855Z,21.5
